Time;durP1;ratioP1;P1;durP2;ratioP2;P2;SDS_P1;SDS_P2;PMS_P1;PMS_P2;Temp;Humidity;BMP_temperature;BMP_pressure;BME280_temperature;BME280_humidity;BME280_pressure;Samples;Min_cycle;Max_cycle;Signal;HPM_P1;HPM_P2
2021/04/19 00:02:02;;;;;;;3.40;3.10;;;22.80;29.80;;;;;;5068098;28;20209;-62
2021/04/19 00:04:28;;;;;;;4.03;2.97;;;22.70;29.70;;;;;;5057669;28;20560;-61
2021/04/19 00:06:54;;;;;;;3.20;2.87;;;22.80;29.80;;;;;;5066370;28;20197;-64
2021/04/19 00:09:20;;;;;;;3.63;3.33;;;22.80;29.70;;;;;;5077363;28;20196;-64
2021/04/19 00:11:46;;;;;;;3.27;2.67;;;22.80;29.80;;;;;;5072123;28;20223;-63
2021/04/19 00:14:12;;;;;;;3.00;2.60;;;22.80;29.70;;;;;;5062428;28;20208;-64
2021/04/19 00:16:38;;;;;;;3.20;2.70;;;22.80;29.70;;;;;;5058939;28;20207;-63
2021/04/19 00:19:04;;;;;;;2.60;2.40;;;22.80;29.80;;;;;;5061320;28;20201;-63
2021/04/19 00:21:30;;;;;;;3.00;2.70;;;22.80;29.70;;;;;;5061417;28;20225;-63
2021/04/19 00:23:56;;;;;;;2.93;2.73;;;22.80;29.70;;;;;;5070986;28;20227;-64
2021/04/19 00:26:22;;;;;;;2.50;2.30;;;22.70;29.60;;;;;;5065387;28;20213;-63
2021/04/19 00:28:48;;;;;;;3.17;2.97;;;22.80;29.70;;;;;;5061540;28;20205;-64
2021/04/19 00:31:13;;;;;;;3.10;2.70;;;22.80;29.70;;;;;;5061392;28;20696;-64
2021/04/19 00:33:39;;;;;;;2.80;2.60;;;22.80;29.70;;;;;;5077449;28;20220;-63
2021/04/19 00:36:06;;;;;;;2.53;2.27;;;22.80;29.70;;;;;;5066847;28;20683;-63
2021/04/19 00:38:32;;;;;;;2.60;2.40;;;22.80;29.70;;;;;;5072364;28;20266;-63
2021/04/19 00:40:58;;;;;;;2.80;2.60;;;22.80;29.60;;;;;;5067836;28;20220;-63
2021/04/19 00:43:24;;;;;;;3.03;2.20;;;22.80;30.10;;;;;;5074167;28;20205;-64
2021/04/19 00:45:50;;;;;;;2.80;2.50;;;22.80;29.60;;;;;;5093779;28;20200;-63
2021/04/19 00:48:16;;;;;;;2.43;2.23;;;22.80;29.60;;;;;;5063826;28;20217;-64
2021/04/19 00:50:42;;;;;;;2.87;2.67;;;22.80;29.60;;;;;;5054357;28;20287;-63
2021/04/19 00:53:08;;;;;;;2.50;2.30;;;22.80;29.60;;;;;;5059726;28;20261;-63
2021/04/19 00:55:34;;;;;;;2.70;2.50;;;22.80;29.60;;;;;;5070654;28;20237;-63
2021/04/19 00:58:00;;;;;;;3.20;2.90;;;22.80;29.60;;;;;;5066126;28;20646;-63
2021/04/19 01:00:26;;;;;;;3.40;2.63;;;22.70;29.50;;;;;;5059343;28;20231;-63
2021/04/19 01:02:52;;;;;;;2.77;2.57;;;22.70;29.50;;;;;;5078363;28;20231;-62
2021/04/19 01:05:18;;;;;;;3.20;2.90;;;22.80;29.50;;;;;;5062110;28;20200;-63
2021/04/19 01:07:44;;;;;;;2.70;2.50;;;22.80;29.60;;;;;;5076274;28;20208;-64
2021/04/19 01:10:10;;;;;;;4.60;2.67;;;22.70;29.50;;;;;;5059059;28;20225;-64
2021/04/19 01:12:36;;;;;;;2.70;2.50;;;22.80;29.50;;;;;;5056464;28;20240;-63
2021/04/19 01:15:02;;;;;;;2.70;2.50;;;22.80;29.50;;;;;;5069465;28;20673;-63
2021/04/19 01:17:28;;;;;;;3.10;2.60;;;22.80;29.50;;;;;;5053266;28;20209;-63
2021/04/19 01:19:54;;;;;;;3.40;2.43;;;22.80;29.50;;;;;;5079503;28;20668;-63
2021/04/19 01:22:20;;;;;;;2.83;2.63;;;22.80;29.50;;;;;;5068767;28;20300;-63
2021/04/19 01:24:46;;;;;;;3.00;2.80;;;22.70;29.50;;;;;;5083628;28;20211;-63
2021/04/19 01:27:12;;;;;;;2.60;2.40;;;22.80;29.50;;;;;;5055326;28;20664;-63
2021/04/19 01:29:38;;;;;;;2.77;2.57;;;22.80;29.50;;;;;;5063115;28;20214;-63
2021/04/19 01:32:04;;;;;;;2.63;2.43;;;22.80;29.50;;;;;;5055871;28;20263;-63
2021/04/19 01:34:30;;;;;;;2.57;2.33;;;22.80;29.50;;;;;;5075906;28;20211;-64
2021/04/19 01:36:56;;;;;;;2.60;2.50;;;22.80;29.50;;;;;;5068044;28;20206;-63
2021/04/19 01:39:22;;;;;;;3.17;2.97;;;22.80;29.50;;;;;;5075045;28;20250;-64
2021/04/19 01:41:48;;;;;;;3.07;2.77;;;22.70;29.50;;;;;;5073977;28;20624;-63
2021/04/19 01:44:14;;;;;;;2.93;2.53;;;22.80;29.50;;;;;;5085301;28;20203;-63
2021/04/19 01:46:39;;;;;;;2.43;2.23;;;22.80;29.50;;;;;;5062971;28;20210;-63
2021/04/19 01:49:05;;;;;;;2.60;2.40;;;22.80;29.50;;;;;;5063149;28;20273;-63
2021/04/19 01:51:31;;;;;;;2.63;2.43;;;22.70;29.40;;;;;;5081561;28;20205;-63
2021/04/19 01:53:57;;;;;;;2.50;2.30;;;22.80;29.50;;;;;;5072589;28;20232;-63
2021/04/19 01:56:23;;;;;;;2.40;2.20;;;22.80;29.50;;;;;;5067325;28;20198;-63
2021/04/19 01:58:49;;;;;;;2.87;2.63;;;22.80;29.50;;;;;;5069270;28;20303;-63
2021/04/19 02:01:15;;;;;;;3.00;2.77;;;22.70;29.40;;;;;;5067919;28;20220;-63
2021/04/19 02:03:41;;;;;;;2.70;2.47;;;22.70;29.40;;;;;;5061158;28;20206;-63
2021/04/19 02:06:07;;;;;;;2.30;2.20;;;22.80;29.50;;;;;;5066477;28;20869;-63
2021/04/19 02:08:33;;;;;;;2.80;2.50;;;22.80;29.50;;;;;;5068515;28;20204;-64
2021/04/19 02:10:59;;;;;;;2.97;2.20;;;22.80;29.50;;;;;;5075102;28;20583;-63
2021/04/19 02:13:25;;;;;;;2.53;2.30;;;22.80;29.50;;;;;;5073107;28;20225;-63
2021/04/19 02:15:51;;;;;;;3.08;2.50;;;22.80;29.50;;;;;;5064372;28;20528;-63
2021/04/19 02:18:17;;;;;;;2.90;2.70;;;22.70;29.40;;;;;;5075080;28;20209;-63
2021/04/19 02:20:44;;;;;;;2.60;2.20;;;22.80;29.50;;;;;;5054959;28;20251;-63
2021/04/19 02:23:10;;;;;;;2.63;2.43;;;22.80;29.50;;;;;;5064473;28;20204;-63
2021/04/19 02:25:36;;;;;;;2.30;2.20;;;22.80;29.50;;;;;;5081508;28;20204;-63
2021/04/19 02:28:02;;;;;;;2.33;2.13;;;22.80;29.50;;;;;;5054687;28;20200;-63
2021/04/19 02:30:28;;;;;;;2.40;2.20;;;22.80;29.50;;;;;;5066091;28;20221;-64
2021/04/19 02:32:54;;;;;;;2.50;2.30;;;22.80;29.50;;;;;;5056122;28;20227;-63
2021/04/19 02:35:20;;;;;;;2.50;2.30;;;22.70;29.40;;;;;;5064827;28;20734;-63
2021/04/19 02:37:46;;;;;;;2.53;2.23;;;22.80;29.40;;;;;;5069715;28;20250;-62
2021/04/19 02:40:12;;;;;;;3.00;2.07;;;22.80;29.40;;;;;;5073667;28;20236;-64
2021/04/19 02:42:38;;;;;;;2.53;2.30;;;22.80;29.40;;;;;;5087394;28;20220;-64
2021/04/19 02:45:04;;;;;;;2.40;2.20;;;22.80;29.40;;;;;;5059028;28;20205;-63
2021/04/19 02:47:30;;;;;;;2.40;2.20;;;22.80;29.50;;;;;;5080643;28;20225;-63
2021/04/19 02:49:56;;;;;;;2.90;2.70;;;22.80;29.50;;;;;;5064660;28;20221;-63
2021/04/19 02:52:22;;;;;;;3.07;2.40;;;22.80;29.50;;;;;;5077008;28;20222;-63
2021/04/19 02:54:48;;;;;;;2.50;2.23;;;22.70;29.50;;;;;;5052714;28;20572;-62
2021/04/19 02:57:14;;;;;;;2.30;2.10;;;22.70;29.40;;;;;;5056375;28;20204;-63
2021/04/19 02:59:40;;;;;;;2.40;2.20;;;22.70;29.40;;;;;;5087294;28;20227;-63
2021/04/19 03:02:06;;;;;;;2.53;2.10;;;22.70;29.40;;;;;;5054940;28;20212;-63
2021/04/19 03:04:31;;;;;;;2.40;2.20;;;22.70;29.40;;;;;;5062240;28;20227;-63
2021/04/19 03:06:57;;;;;;;2.30;2.10;;;22.80;29.50;;;;;;5070510;28;20200;-63
2021/04/19 03:09:23;;;;;;;2.25;2.10;;;22.80;29.50;;;;;;5063600;28;20220;-64
2021/04/19 03:11:49;;;;;;;2.50;2.30;;;22.80;29.50;;;;;;5060504;28;20259;-63
2021/04/19 03:14:15;;;;;;;2.43;1.93;;;22.80;29.50;;;;;;5051554;28;20197;-63
2021/04/19 03:16:41;;;;;;;2.30;2.20;;;22.70;29.30;;;;;;5074363;28;20200;-63
2021/04/19 03:19:07;;;;;;;2.25;2.08;;;22.70;29.30;;;;;;5061457;28;20221;-64
2021/04/19 03:21:34;;;;;;;2.57;2.37;;;22.70;29.30;;;;;;5069188;28;20307;-64
2021/04/19 03:24:00;;;;;;;2.63;2.42;;;22.80;29.40;;;;;;5056604;28;20209;-63
2021/04/19 03:26:26;;;;;;;2.60;2.40;;;22.80;29.50;;;;;;5079292;28;20209;-62
2021/04/19 03:28:52;;;;;;;2.30;2.20;;;22.80;29.50;;;;;;5057936;28;20297;-64
2021/04/19 03:31:18;;;;;;;2.00;1.90;;;22.80;29.40;;;;;;5077859;28;20237;-63
2021/04/19 03:33:44;;;;;;;2.40;2.20;;;22.70;29.40;;;;;;5060059;28;20704;-63
2021/04/19 03:36:10;;;;;;;2.63;2.43;;;22.80;29.50;;;;;;5069635;28;20208;-63
2021/04/19 03:38:36;;;;;;;3.37;2.33;;;22.80;29.50;;;;;;5070790;28;20705;-63
2021/04/19 03:41:01;;;;;;;2.40;2.20;;;22.70;29.40;;;;;;5060919;28;20200;-64
2021/04/19 03:43:27;;;;;;;2.10;2.00;;;22.80;29.50;;;;;;5069570;28;20215;-64
2021/04/19 03:45:53;;;;;;;3.73;1.93;;;22.80;29.50;;;;;;5057734;28;20266;-63
2021/04/19 03:48:19;;;;;;;2.60;2.40;;;22.80;29.50;;;;;;5070094;28;20209;-63
2021/04/19 03:50:45;;;;;;;2.43;2.23;;;22.80;29.50;;;;;;5063224;28;20678;-64
2021/04/19 03:53:11;;;;;;;2.20;2.10;;;22.80;29.40;;;;;;5064885;28;20231;-63
2021/04/19 03:55:37;;;;;;;2.30;2.10;;;22.70;29.40;;;;;;5049843;28;20650;-64
2021/04/19 03:58:03;;;;;;;2.00;1.90;;;22.70;29.30;;;;;;5055215;28;20209;-64
2021/04/19 04:00:29;;;;;;;2.42;2.08;;;22.70;29.40;;;;;;5061348;28;20701;-63
2021/04/19 04:02:55;;;;;;;2.40;2.20;;;22.70;29.40;;;;;;5053751;28;20217;-63
2021/04/19 04:05:21;;;;;;;2.00;1.90;;;22.70;29.40;;;;;;5063320;28;20447;-63
2021/04/19 04:07:47;;;;;;;2.20;2.00;;;22.80;29.40;;;;;;5082769;28;20207;-63
2021/04/19 04:10:13;;;;;;;2.40;2.20;;;22.80;29.40;;;;;;5055492;28;20693;-62
2021/04/19 04:12:39;;;;;;;3.40;2.10;;;22.70;29.40;;;;;;5074330;28;20251;-63
2021/04/19 04:15:05;;;;;;;1.90;1.80;;;22.80;29.60;;;;;;5055039;28;20707;-63
2021/04/19 04:17:31;;;;;;;2.43;2.23;;;22.70;29.60;;;;;;5083385;28;20199;-63
2021/04/19 04:19:57;;;;;;;2.73;2.00;;;22.70;29.70;;;;;;5078648;28;20224;-63
2021/04/19 04:22:23;;;;;;;2.20;2.00;;;22.70;29.60;;;;;;5067210;28;20205;-64
2021/04/19 04:24:49;;;;;;;2.37;1.90;;;22.70;29.60;;;;;;5051508;28;20598;-63
2021/04/19 04:27:15;;;;;;;2.17;2.00;;;22.70;29.60;;;;;;5069141;28;20211;-63
2021/04/19 04:29:41;;;;;;;2.23;2.03;;;22.70;29.50;;;;;;5069757;28;20272;-63
2021/04/19 04:32:07;;;;;;;2.53;2.03;;;22.70;29.50;;;;;;5081326;28;20208;-63
2021/04/19 04:34:33;;;;;;;2.40;2.20;;;22.70;29.60;;;;;;5078150;28;20204;-64
2021/04/19 04:36:59;;;;;;;2.43;2.10;;;22.70;29.60;;;;;;5055798;28;20200;-63
2021/04/19 04:39:25;;;;;;;2.30;2.10;;;22.70;29.60;;;;;;5061962;28;20220;-63
2021/04/19 04:41:51;;;;;;;2.20;2.00;;;22.70;29.70;;;;;;5078711;28;20196;-64
2021/04/19 04:44:17;;;;;;;1.93;1.83;;;22.70;29.60;;;;;;5057203;28;20201;-64
2021/04/19 04:46:45;;;;;;;2.60;2.10;;;22.70;29.60;;;;;;5072275;28;20551;-64
2021/04/19 04:49:11;;;;;;;2.13;1.90;;;22.70;29.80;;;;;;5067989;28;20265;-64
2021/04/19 04:51:37;;;;;;;2.20;2.00;;;22.70;30.20;;;;;;5054345;28;20614;-64
2021/04/19 04:54:03;;;;;;;3.70;2.17;;;22.70;29.70;;;;;;5056567;28;20228;-63
2021/04/19 04:56:29;;;;;;;3.07;2.07;;;22.70;29.70;;;;;;5050485;28;20215;-64
2021/04/19 04:58:55;;;;;;;2.07;1.97;;;22.70;29.60;;;;;;5061256;28;20231;-63
2021/04/19 05:01:21;;;;;;;2.60;2.37;;;22.70;29.60;;;;;;5079170;28;20207;-63
2021/04/19 05:03:46;;;;;;;2.40;2.20;;;22.70;29.80;;;;;;5068611;28;20653;-63
2021/04/19 05:06:12;;;;;;;2.77;2.20;;;22.70;29.70;;;;;;5071398;28;20211;-63
2021/04/19 05:08:38;;;;;;;4.07;2.50;;;22.70;29.70;;;;;;5067087;28;20235;-63
2021/04/19 05:11:04;;;;;;;2.23;2.03;;;22.70;29.60;;;;;;5075612;28;20200;-63
2021/04/19 05:13:30;;;;;;;4.50;2.40;;;22.70;29.60;;;;;;5077598;28;20232;-64
2021/04/19 05:15:57;;;;;;;2.50;2.30;;;22.70;29.70;;;;;;5062598;28;20204;-64
2021/04/19 05:18:22;;;;;;;2.50;2.03;;;22.70;29.70;;;;;;5085192;28;20248;-64
2021/04/19 05:20:48;;;;;;;2.43;2.23;;;22.70;29.70;;;;;;5068008;28;20211;-64
2021/04/19 05:23:15;;;;;;;2.60;2.13;;;22.70;29.60;;;;;;5091914;28;20200;-63
2021/04/19 05:25:41;;;;;;;2.33;2.13;;;22.70;29.70;;;;;;5065639;28;20292;-64
2021/04/19 05:28:07;;;;;;;2.20;2.00;;;22.80;29.70;;;;;;5056613;28;20205;-64
2021/04/19 05:30:33;;;;;;;2.53;2.07;;;22.80;29.70;;;;;;5066506;28;20201;-64
2021/04/19 05:32:59;;;;;;;3.63;2.43;;;22.80;29.70;;;;;;5085333;28;20225;-65
2021/04/19 05:35:25;;;;;;;1.90;1.80;;;22.80;29.70;;;;;;5053676;28;20198;-64
2021/04/19 05:37:51;;;;;;;2.20;1.87;;;22.80;29.60;;;;;;5088815;28;20543;-63
2021/04/19 05:40:17;;;;;;;2.60;2.40;;;22.70;29.60;;;;;;5082285;28;20216;-64
2021/04/19 05:42:43;;;;;;;2.17;1.90;;;22.80;29.70;;;;;;5075869;28;20205;-64
2021/04/19 05:45:09;;;;;;;3.70;2.17;;;22.70;29.60;;;;;;5056058;28;20211;-64
2021/04/19 05:47:37;;;;;;;2.60;2.40;;;22.80;29.70;;;;;;5077831;28;20240;-64
2021/04/19 05:50:02;;;;;;;2.80;2.10;;;22.80;29.60;;;;;;5052987;28;20608;-64
2021/04/19 05:52:28;;;;;;;1.93;1.80;;;22.80;29.70;;;;;;5059698;28;20287;-64
2021/04/19 05:54:54;;;;;;;2.27;2.03;;;22.80;29.70;;;;;;5072398;28;20239;-65
2021/04/19 05:57:20;;;;;;;2.67;2.47;;;22.70;29.60;;;;;;5071917;28;20205;-63
2021/04/19 05:59:46;;;;;;;2.37;2.17;;;22.80;29.70;;;;;;5053245;28;20906;-63
2021/04/19 06:02:12;;;;;;;3.30;2.33;;;22.80;29.80;;;;;;5075057;28;20201;-63
2021/04/19 06:04:38;;;;;;;2.53;1.90;;;22.70;29.70;;;;;;5064111;28;20656;-63
2021/04/19 06:07:04;;;;;;;2.27;2.07;;;22.70;29.60;;;;;;5069875;28;20261;-63
2021/04/19 06:09:30;;;;;;;3.90;1.93;;;22.70;29.70;;;;;;5063042;28;21410;-59
2021/04/19 06:11:56;;;;;;;4.70;2.37;;;22.70;30.10;;;;;;5070785;28;20216;-64
2021/04/19 06:14:22;;;;;;;7.83;2.50;;;22.80;30.70;;;;;;5062757;28;20271;-59
2021/04/19 06:16:48;;;;;;;13.77;2.93;;;22.70;31.80;;;;;;5072756;28;20645;-58
2021/04/19 06:19:14;;;;;;;6.83;2.97;;;22.70;31.40;;;;;;5060998;28;20221;-59
2021/04/19 06:21:40;;;;;;;5.23;2.40;;;22.70;31.30;;;;;;5074094;28;20208;-58
2021/04/19 06:24:06;;;;;;;5.60;2.50;;;22.70;31.50;;;;;;5079231;28;20204;-63
2021/04/19 06:26:32;;;;;;;11.23;9.80;;;22.70;31.70;;;;;;5062138;28;20203;-64
2021/04/19 06:28:58;;;;;;;14.73;13.23;;;21.80;26.10;;;;;;5079971;28;20637;-64
2021/04/19 06:31:24;;;;;;;15.03;11.83;;;19.60;24.50;;;;;;5066851;28;20201;-64
2021/04/19 06:33:50;;;;;;;11.30;10.20;;;19.00;26.90;;;;;;5071638;28;20217;-65
2021/04/19 06:36:16;;;;;;;10.80;9.43;;;20.00;26.40;;;;;;5052217;28;20206;-64
2021/04/19 06:38:42;;;;;;;9.17;7.77;;;20.70;26.40;;;;;;5069921;28;20298;-65
2021/04/19 06:41:08;;;;;;;8.63;6.87;;;21.20;26.80;;;;;;5077202;28;20192;-65
2021/04/19 06:43:34;;;;;;;6.73;5.67;;;21.50;27.00;;;;;;5089110;28;20203;-65
2021/04/19 06:46:00;;;;;;;7.13;4.77;;;21.70;27.10;;;;;;5069500;28;20211;-65
2021/04/19 06:48:26;;;;;;;4.77;4.30;;;21.90;27.30;;;;;;5068967;28;20593;-65
2021/04/19 06:50:52;;;;;;;4.17;3.63;;;22.00;27.30;;;;;;5063234;28;20215;-64
2021/04/19 06:53:18;;;;;;;5.07;4.17;;;22.00;27.30;;;;;;5070394;28;20226;-65
2021/04/19 06:55:44;;;;;;;4.27;3.77;;;22.10;27.40;;;;;;5081539;28;20196;-65
2021/04/19 06:58:12;;;;;;;5.13;3.27;;;22.10;27.60;;;;;;5068396;28;20227;-66
2021/04/19 07:00:38;;;;;;;3.70;3.30;;;22.20;27.80;;;;;;5066584;28;20291;-66
2021/04/19 07:03:04;;;;;;;3.73;2.93;;;22.20;27.90;;;;;;5071292;28;20204;-63
2021/04/19 07:05:29;;;;;;;4.17;3.10;;;22.30;28.20;;;;;;5074310;28;20213;-63
2021/04/19 07:07:55;;;;;;;4.90;3.10;;;22.30;28.10;;;;;;5070890;28;20215;-65
2021/04/19 07:10:21;;;;;;;3.10;2.80;;;22.40;28.20;;;;;;5068914;28;20656;-65
2021/04/19 07:12:47;;;;;;;4.67;3.10;;;22.40;28.20;;;;;;5066553;28;20225;-64
2021/04/19 07:15:15;;;;;;;4.73;3.20;;;22.40;28.30;;;;;;5093099;28;20227;-63
2021/04/19 07:17:41;;;;;;;2.80;2.53;;;22.40;28.40;;;;;;5073932;28;20203;-64
2021/04/19 07:20:07;;;;;;;3.73;2.67;;;22.40;28.40;;;;;;5072048;28;20262;-55
2021/04/19 07:22:33;;;;;;;4.03;3.10;;;22.40;28.80;;;;;;5054378;28;20207;-59
2021/04/19 07:24:59;;;;;;;3.13;2.70;;;22.50;28.60;;;;;;5068994;28;20204;-63
2021/04/19 07:27:25;;;;;;;4.13;2.80;;;22.60;29.00;;;;;;5062135;28;20201;-62
2021/04/19 07:29:51;;;;;;;4.13;2.67;;;22.60;28.80;;;;;;5058883;28;20762;-66
2021/04/19 07:32:17;;;;;;;6.73;3.20;;;22.50;28.80;;;;;;5069219;28;20215;-64
2021/04/19 07:34:43;;;;;;;3.17;2.43;;;22.50;28.80;;;;;;5060345;28;20204;-68
2021/04/19 07:37:09;;;;;;;5.10;2.70;;;22.50;28.80;;;;;;5072602;28;20196;-68
2021/04/19 07:39:35;;;;;;;2.43;2.20;;;22.50;28.90;;;;;;5065496;28;20315;-61
2021/04/19 07:42:01;;;;;;;3.90;2.77;;;22.50;29.10;;;;;;5051963;28;20218;-59
2021/04/19 07:44:27;;;;;;;4.40;2.70;;;22.50;29.10;;;;;;5059617;28;20231;-61
2021/04/19 07:46:53;;;;;;;3.47;3.03;;;22.50;29.40;;;;;;5061444;28;20219;-50
2021/04/19 07:49:19;;;;;;;4.23;2.43;;;22.50;29.40;;;;;;5062710;28;20225;-50
2021/04/19 07:51:45;;;;;;;3.20;2.90;;;22.50;29.30;;;;;;5081446;28;20291;-58
2021/04/19 07:54:11;;;;;;;3.97;2.63;;;22.60;29.20;;;;;;5072458;28;20719;-54
2021/04/19 07:56:37;;;;;;;3.30;3.00;;;22.60;29.20;;;;;;5085770;28;20212;-54
2021/04/19 07:59:03;;;;;;;3.40;2.70;;;22.50;29.20;;;;;;5064682;28;20719;-55
2021/04/19 08:01:28;;;;;;;3.53;2.87;;;22.50;29.40;;;;;;5069419;28;20216;-58
2021/04/19 08:03:54;;;;;;;4.00;2.60;;;22.60;29.80;;;;;;5064911;28;20672;-61
2021/04/19 08:06:20;;;;;;;3.40;2.73;;;22.70;29.60;;;;;;5050920;28;20263;-60
2021/04/19 08:08:46;;;;;;;4.30;3.00;;;22.60;29.50;;;;;;5058919;28;20331;-60
2021/04/19 08:11:12;;;;;;;3.10;2.80;;;22.60;29.60;;;;;;5062863;28;21023;-58
2021/04/19 08:13:38;;;;;;;2.60;2.40;;;22.60;30.10;;;;;;5071160;28;20227;-58
2021/04/19 08:16:04;;;;;;;2.50;2.30;;;22.60;29.60;;;;;;5088083;28;20204;-53
2021/04/19 08:18:30;;;;;;;3.17;2.70;;;22.60;29.60;;;;;;5075482;28;20255;-64
2021/04/19 08:20:57;;;;;;;3.67;2.97;;;22.60;29.40;;;;;;5065020;28;20208;-59
2021/04/19 08:23:23;;;;;;;4.30;2.60;;;22.60;30.00;;;;;;5071559;28;20210;-59
2021/04/19 08:25:49;;;;;;;3.43;2.47;;;22.60;29.80;;;;;;5065115;28;20212;-61
2021/04/19 08:28:15;;;;;;;3.13;2.70;;;22.60;29.70;;;;;;5066674;28;20224;-61
2021/04/19 08:30:41;;;;;;;2.97;2.67;;;22.60;29.60;;;;;;5069510;28;20262;-62
2021/04/19 08:33:07;;;;;;;3.17;2.50;;;22.60;29.60;;;;;;5051862;28;20280;-61
2021/04/19 08:35:33;;;;;;;3.00;2.70;;;22.60;29.60;;;;;;5052601;28;20251;-60
2021/04/19 08:37:59;;;;;;;4.00;2.80;;;22.60;29.70;;;;;;5049933;28;20223;-60
2021/04/19 08:40:25;;;;;;;3.77;3.17;;;22.60;29.60;;;;;;5053421;28;20202;-59
2021/04/19 08:42:51;;;;;;;4.17;2.20;;;22.60;29.60;;;;;;5066625;28;20218;-60
2021/04/19 08:45:17;;;;;;;3.97;2.90;;;22.60;29.50;;;;;;5074300;28;20214;-59
2021/04/19 08:47:44;;;;;;;2.93;2.63;;;22.60;29.60;;;;;;5073868;28;20232;-59
2021/04/19 08:50:11;;;;;;;4.30;3.13;;;22.60;29.80;;;;;;5057594;28;20238;-59
2021/04/19 08:52:37;;;;;;;3.63;2.50;;;22.60;29.90;;;;;;5066339;28;20225;-61
2021/04/19 08:55:03;;;;;;;4.27;2.97;;;22.60;29.90;;;;;;5054252;28;20220;-61
2021/04/19 08:57:29;;;;;;;3.40;3.10;;;22.60;29.80;;;;;;5053676;28;20256;-60
2021/04/19 08:59:55;;;;;;;3.33;2.60;;;22.60;29.90;;;;;;5054452;28;20248;-60
2021/04/19 09:02:21;;;;;;;3.00;2.70;;;22.60;30.00;;;;;;5071021;28;20665;-60
2021/04/19 09:04:47;;;;;;;3.93;2.47;;;22.60;30.00;;;;;;5059026;28;20205;-59
2021/04/19 09:07:13;;;;;;;3.87;2.70;;;22.60;30.00;;;;;;5055787;28;20282;-59
2021/04/19 09:09:40;;;;;;;3.13;2.57;;;22.60;30.00;;;;;;5069713;28;20197;-60
2021/04/19 09:12:06;;;;;;;3.80;3.00;;;22.70;30.00;;;;;;5059900;28;20215;-60
2021/04/19 09:14:32;;;;;;;3.77;3.13;;;22.70;30.00;;;;;;5055212;28;20229;-59
2021/04/19 09:16:57;;;;;;;3.30;2.60;;;22.70;30.10;;;;;;5053349;28;20201;-59
2021/04/19 09:19:23;;;;;;;3.70;3.00;;;22.60;30.20;;;;;;5061612;28;20722;-60
2021/04/19 09:21:50;;;;;;;3.97;2.50;;;22.60;30.10;;;;;;5069876;28;20282;-59
2021/04/19 09:24:17;;;;;;;4.87;2.77;;;22.60;30.20;;;;;;5075516;28;20301;-60
2021/04/19 09:26:43;;;;;;;3.87;3.20;;;22.70;30.70;;;;;;5070872;28;20276;-61
2021/04/19 09:29:09;;;;;;;3.23;2.87;;;22.70;30.20;;;;;;5078758;28;20236;-60
2021/04/19 09:31:35;;;;;;;2.53;2.33;;;22.70;30.00;;;;;;5071830;28;20718;-54
2021/04/19 09:34:01;;;;;;;2.93;2.30;;;22.70;30.00;;;;;;5073561;28;20687;-53
2021/04/19 09:36:27;;;;;;;3.23;2.50;;;22.70;29.80;;;;;;5071895;28;20226;-59
2021/04/19 09:38:53;;;;;;;3.50;2.70;;;22.70;29.80;;;;;;5081835;28;20221;-51
2021/04/19 09:41:19;;;;;;;4.17;2.70;;;22.70;29.90;;;;;;5076862;28;20290;-62
2021/04/19 09:43:46;;;;;;;3.63;2.60;;;22.70;29.90;;;;;;5071557;28;20223;-53
2021/04/19 09:46:12;;;;;;;4.17;2.63;;;22.70;30.50;;;;;;5080255;28;20568;-59
2021/04/19 09:48:39;;;;;;;2.73;2.30;;;22.70;30.00;;;;;;5065483;28;20225;-60
2021/04/19 09:51:05;;;;;;;2.97;2.57;;;22.80;29.90;;;;;;5072131;28;20196;-60
2021/04/19 09:53:31;;;;;;;4.73;2.70;;;22.80;29.90;;;;;;5064100;28;20271;-60
2021/04/19 09:55:57;;;;;;;3.50;2.60;;;22.80;31.10;;;;;;5093771;28;20204;-60
2021/04/19 09:58:23;;;;;;;3.10;2.80;;;22.80;31.40;;;;;;5075723;28;20222;-57
2021/04/19 10:00:48;;;;;;;5.10;3.00;;;22.90;31.50;;;;;;5088119;28;20647;-60
2021/04/19 10:03:15;;;;;;;27.27;16.83;;;23.00;31.80;;;;;;5077878;28;20213;-59
2021/04/19 10:05:41;;;;;;;26.42;18.17;;;23.00;32.30;;;;;;5087860;28;20204;-55
2021/04/19 10:08:07;;;;;;;25.00;16.48;;;23.00;32.40;;;;;;5073995;28;20304;-60
2021/04/19 10:10:33;;;;;;;20.63;15.95;;;23.10;33.10;;;;;;5079478;28;20696;-60
2021/04/19 10:12:59;;;;;;;24.63;17.60;;;23.10;33.30;;;;;;5067849;28;20235;-59
2021/04/19 10:15:25;;;;;;;27.23;18.15;;;23.10;33.10;;;;;;5065057;28;20222;-59
2021/04/19 10:17:51;;;;;;;22.73;16.02;;;23.10;33.20;;;;;;5065863;28;20232;-60
2021/04/19 10:20:18;;;;;;;24.65;18.15;;;23.10;33.00;;;;;;5069274;28;20213;-59
2021/04/19 10:22:44;;;;;;;27.40;17.27;;;23.10;33.00;;;;;;5072852;28;20287;-60
2021/04/19 10:25:10;;;;;;;26.35;16.38;;;23.10;33.10;;;;;;5073941;28;20192;-61
2021/04/19 10:27:36;;;;;;;27.95;16.67;;;23.10;32.90;;;;;;5066209;28;20229;-60
2021/04/19 10:30:02;;;;;;;26.77;17.77;;;23.10;32.80;;;;;;5086721;28;20196;-60
2021/04/19 10:32:28;;;;;;;29.40;19.53;;;23.10;32.80;;;;;;5068353;28;20209;-60
2021/04/19 10:34:54;;;;;;;24.57;18.73;;;23.10;33.30;;;;;;5060167;28;20715;-60
2021/04/19 10:37:20;;;;;;;28.08;19.20;;;23.10;33.40;;;;;;5076698;28;20232;-61
2021/04/19 10:39:46;;;;;;;30.35;20.30;;;23.10;34.30;;;;;;5070227;28;20196;-59
2021/04/19 10:42:12;;;;;;;29.40;19.90;;;23.10;33.90;;;;;;5064076;28;20198;-59
2021/04/19 10:44:38;;;;;;;28.90;18.70;;;23.20;34.00;;;;;;5057409;28;20206;-59
2021/04/19 10:47:04;;;;;;;27.30;19.60;;;23.20;34.20;;;;;;5066801;28;20226;-60
2021/04/19 10:49:30;;;;;;;28.47;19.47;;;23.20;34.40;;;;;;5075723;28;20692;-55
2021/04/19 10:51:56;;;;;;;27.92;19.52;;;23.20;35.00;;;;;;5075730;28;20201;-62
2021/04/19 10:54:22;;;;;;;27.13;18.70;;;23.20;34.60;;;;;;5067080;28;20561;-62
2021/04/19 10:56:48;;;;;;;28.75;18.88;;;23.20;35.20;;;;;;5070881;28;20284;-62
2021/04/19 10:59:14;;;;;;;22.75;17.00;;;23.20;35.30;;;;;;5060381;28;20251;-62
2021/04/19 11:01:40;;;;;;;27.23;19.27;;;23.20;35.70;;;;;;5081943;28;20197;-63
2021/04/19 11:04:06;;;;;;;29.92;18.75;;;23.20;35.70;;;;;;5061848;28;20676;-62
2021/04/19 11:06:32;;;;;;;28.30;19.23;;;23.20;35.80;;;;;;5068733;28;20645;-63
2021/04/19 11:08:58;;;;;;;28.65;18.95;;;23.20;36.10;;;;;;5072931;28;20261;-63
2021/04/19 11:11:24;;;;;;;28.65;20.48;;;23.20;36.50;;;;;;5065971;28;20197;-62
2021/04/19 11:13:50;;;;;;;27.10;19.98;;;23.20;37.00;;;;;;5068298;28;20250;-62
2021/04/19 11:16:16;;;;;;;29.23;19.45;;;23.20;37.40;;;;;;5068812;28;20274;-62
2021/04/19 11:18:44;;;;;;;29.13;20.45;;;23.20;37.40;;;;;;5068336;28;20220;-63
2021/04/19 11:21:09;;;;;;;31.80;21.30;;;23.30;37.70;;;;;;5068580;28;20204;-62
2021/04/19 11:23:36;;;;;;;29.92;18.55;;;23.30;38.10;;;;;;5069576;28;21029;-62
2021/04/19 11:26:02;;;;;;;28.80;19.60;;;23.30;38.40;;;;;;5068576;28;20229;-63
2021/04/19 11:28:30;;;;;;;27.55;19.35;;;23.30;38.70;;;;;;5063329;28;20358;-62
2021/04/19 11:30:56;;;;;;;28.50;19.88;;;23.30;38.80;;;;;;5070760;28;20209;-62
2021/04/19 11:33:22;;;;;;;29.27;20.10;;;23.30;39.50;;;;;;5068905;28;20716;-63
2021/04/19 11:35:48;;;;;;;29.33;18.88;;;23.30;40.00;;;;;;5070332;28;20207;-63
2021/04/19 11:38:14;;;;;;;31.58;18.30;;;23.30;40.50;;;;;;5061052;28;20724;-62
2021/04/19 11:40:40;;;;;;;29.15;17.90;;;23.30;41.60;;;;;;5066925;28;20213;-63
2021/04/19 11:43:08;;;;;;;27.73;17.95;;;23.30;41.80;;;;;;5080768;28;20622;-63
2021/04/19 11:45:34;;;;;;;28.33;16.77;;;23.30;42.10;;;;;;5071502;28;20712;-62
2021/04/19 11:48:00;;;;;;;25.45;16.42;;;23.30;42.30;;;;;;5051795;28;20261;-63
2021/04/19 11:50:30;;;;;;;22.63;15.60;;;23.40;42.40;;;;;;5058109;28;20205;-63
2021/04/19 11:52:56;;;;;;;24.50;16.13;;;23.30;42.30;;;;;;5058200;28;20236;-63
2021/04/19 11:55:22;;;;;;;26.08;14.90;;;23.30;42.30;;;;;;5063518;28;20205;-63
2021/04/19 11:57:48;;;;;;;24.50;15.05;;;23.30;42.00;;;;;;5065392;28;20221;-63
2021/04/19 12:00:14;;;;;;;24.30;14.35;;;23.30;41.70;;;;;;5065927;28;20576;-64
2021/04/19 12:02:40;;;;;;;24.27;14.90;;;23.30;41.50;;;;;;5063605;28;20227;-63
2021/04/19 12:05:06;;;;;;;21.20;14.55;;;23.30;41.70;;;;;;5064279;28;20661;-63
2021/04/19 12:07:32;;;;;;;20.63;13.70;;;23.30;41.10;;;;;;5066597;28;20225;-63
2021/04/19 12:09:58;;;;;;;20.90;14.88;;;23.30;40.80;;;;;;5066030;28;20284;-64
2021/04/19 12:12:24;;;;;;;20.77;13.20;;;23.30;41.00;;;;;;5063242;28;20688;-63
2021/04/19 12:14:50;;;;;;;22.40;13.38;;;23.30;40.50;;;;;;5059017;28;20228;-64
2021/04/19 12:17:16;;;;;;;21.90;13.05;;;23.30;40.40;;;;;;5063750;28;20309;-63
2021/04/19 12:19:42;;;;;;;25.77;13.27;;;23.30;40.20;;;;;;5068858;28;20197;-63
2021/04/19 12:22:08;;;;;;;19.50;12.32;;;23.30;40.20;;;;;;5069815;28;20208;-62
2021/04/19 12:24:34;;;;;;;23.80;12.25;;;23.30;39.90;;;;;;5077618;28;20201;-63
2021/04/19 12:27:00;;;;;;;21.50;11.25;;;23.30;39.90;;;;;;5088697;28;20228;-62
2021/04/19 12:29:26;;;;;;;11.95;8.35;;;23.20;39.10;;;;;;5071152;28;20206;-62
2021/04/19 12:31:52;;;;;;;10.63;8.10;;;23.00;29.60;;;;;;5070346;28;20299;-62
2021/04/19 12:34:18;;;;;;;9.40;6.63;;;22.60;29.60;;;;;;5070722;28;20225;-62
2021/04/19 12:36:44;;;;;;;8.13;6.60;;;22.60;29.10;;;;;;5068166;28;20221;-62